Ohshima Kazumaru — JD2908 — position and weather

sailwx.info

Track history (hours):
 
Tides and Currents Weather Stations Pressure Air Temp Water Temp Dewpoint Dewpoint Depression Visibility Wind Speed Wind Dir Waves Ship Positions

Ohshima Kazumaru

Last reported at 2016-Sep-26 11:33 UTC. Time now 2016-Sep-28 10:20 UTC.
Position N 35°02' E 139°33'.

Length 69 m; draft 4 m.

Type: Cargo ship. MMSI: 431000925.

Date/timePositionNaut miles runAvg speedWind from/ knotsBaromVisibWave heightAir tempDewpointWater temp
2016-Sep-26 11:33N 35°02' E 139°33'3210.6
2016-Sep-26 08:33N 35°31' E 139°49'8 1.3
2016-Sep-26 02:33N 35°38' E 139°46'0 0.0
2016-Sep-26 01:33N 35°38' E 139°46'0 0.0
2016-Sep-26 00:33N 35°38' E 139°46'5 1.8
2016-Sep-25 21:34N 35°34' E 139°49'20 5.0
2016-Sep-25 17:33N 35°14' E 139°47'  
2016-Sep-18 15:17N 34°60' E 139°28'1310.8
2016-Sep-18 14:06N 35°07' E 139°41'25 7.1
2016-Sep-18 10:33N 35°32' E 139°47'0 0.0
2016-Sep-18 09:33N 35°32' E 139°47'0 0.0
2016-Sep-18 02:33N 35°32' E 139°47'0 0.0
2016-Sep-18 01:33N 35°32' E 139°47'0 0.0
2016-Sep-18 00:33N 35°32' E 139°47'0 0.0
2016-Sep-17 22:33N 35°32' E 139°47'2 2.4
2016-Sep-17 21:33N 35°31' E 139°50'0 0.0
2016-Sep-17 20:33N 35°31' E 139°50'10 7.5
2016-Sep-17 19:16N 35°22' E 139°45'  
Track history (hours):
 
Tides and Currents Weather Stations Pressure Air Temp Water Temp Dewpoint Dewpoint Depression Visibility Wind Speed Wind Dir Waves Ship Positions

Ohshima Kazumaru

Last reported at 2016-Sep-26 11:33 UTC. Time now 2016-Sep-28 10:20 UTC.
Position N 35°02' E 139°33'.

Length 69 m; draft 4 m.

Type: Cargo ship. MMSI: 431000925.

Date/timePositionNaut miles runAvg speedWind from/ knotsBaromVisibWave heightAir tempDewpointWater temp
2016-Sep-26 11:33N 35°02' E 139°33'3210.6
2016-Sep-26 08:33N 35°31' E 139°49'8 1.3
2016-Sep-26 02:33N 35°38' E 139°46'0 0.0
2016-Sep-26 01:33N 35°38' E 139°46'0 0.0
2016-Sep-26 00:33N 35°38' E 139°46'5 1.8
2016-Sep-25 21:34N 35°34' E 139°49'20 5.0
2016-Sep-25 17:33N 35°14' E 139°47'  
2016-Sep-18 15:17N 34°60' E 139°28'1310.8
2016-Sep-18 14:06N 35°07' E 139°41'25 7.1
2016-Sep-18 10:33N 35°32' E 139°47'0 0.0
2016-Sep-18 09:33N 35°32' E 139°47'0 0.0
2016-Sep-18 02:33N 35°32' E 139°47'0 0.0
2016-Sep-18 01:33N 35°32' E 139°47'0 0.0
2016-Sep-18 00:33N 35°32' E 139°47'0 0.0
2016-Sep-17 22:33N 35°32' E 139°47'2 2.4
2016-Sep-17 21:33N 35°31' E 139°50'0 0.0
2016-Sep-17 20:33N 35°31' E 139°50'10 7.5
2016-Sep-17 19:16N 35°22' E 139°45'  

Dump ship's entire track history